createdAt,value
2019-01-09T00:01:49.072Z,93001.67
2019-01-09T00:16:51.905Z,92990.13
2019-01-09T00:31:54.509Z,92986.72
2019-01-09T00:46:57.284Z,92987.75
2019-01-09T01:02:13.739Z,92984.15
2019-01-09T01:17:38.273Z,93001.94
2019-01-09T01:32:47.381Z,92984.48
2019-01-09T01:48:06.670Z,92969.88
2019-01-09T02:03:19.008Z,92958.92
2019-01-09T02:18:25.588Z,92956.53
2019-01-09T02:33:28.969Z,92935.98
2019-01-09T02:48:31.533Z,92920.08
2019-01-09T03:03:34.689Z,92901.87
2019-01-09T03:18:37.252Z,92898.47
2019-01-09T03:33:40.271Z,92887.78
2019-01-09T03:48:42.917Z,92869.69
2019-01-09T04:03:47.317Z,92865.57
2019-01-09T04:18:49.876Z,92858.38
2019-01-09T04:33:52.452Z,92855.76
2019-01-09T04:48:56.231Z,92846.55
2019-01-09T05:03:58.823Z,92856.78
2019-01-09T05:19:01.497Z,92836.75
2019-01-09T05:34:04.090Z,92813.69
2019-01-09T05:49:06.679Z,92790.34
2019-01-09T06:04:09.257Z,92785.14
2019-01-09T06:19:13.100Z,92775.70
2019-01-09T06:34:18.850Z,92761.09
2019-01-09T06:49:21.535Z,92761.22
2019-01-09T07:04:24.109Z,92761.22
2019-01-09T07:19:26.687Z,92759.48
2019-01-09T07:34:29.441Z,92757.56
2019-01-09T07:49:32.046Z,92752.46
2019-01-09T08:04:35.440Z,92747.52
2019-01-09T08:19:38.369Z,92743.33
2019-01-09T08:34:41.902Z,92756.52
2019-01-09T08:49:44.458Z,92742.96
2019-01-09T09:04:47.594Z,92738.86
2019-01-09T09:19:50.152Z,92719.19
2019-01-09T09:34:53.550Z,92703.92
2019-01-09T09:49:56.129Z,92685.88
2019-01-09T10:04:58.709Z,92667.37
2019-01-09T10:20:04.041Z,92663.42
2019-01-09T10:35:06.729Z,92662.63
2019-01-09T10:50:13.038Z,92644.30
2019-01-09T11:05:16.008Z,92617.55
2019-01-09T11:20:20.434Z,92586.22
2019-01-09T11:35:29.841Z,92547.18
2019-01-09T11:50:34.233Z,92517.63
2019-01-09T12:05:36.865Z,92496.05
2019-01-09T12:20:40.755Z,92476.47
2019-01-09T12:35:43.323Z,92450.94
2019-01-09T12:50:47.207Z,92444.81
2019-01-09T13:05:49.789Z,92429.56
2019-01-09T13:20:53.229Z,92417.59
2019-01-09T13:35:55.808Z,92416.34
2019-01-09T13:50:58.385Z,92413.05
2019-01-09T14:06:00.941Z,92392.91
2019-01-09T14:21:03.520Z,92386.23
2019-01-09T14:36:07.007Z,92364.61
2019-01-09T14:51:09.660Z,92353.77
2019-01-09T15:06:12.666Z,92369.39
2019-01-09T15:21:15.243Z,92355.32
2019-01-09T15:36:19.749Z,92364.57
2019-01-09T15:51:23.760Z,92356.84
2019-01-09T16:06:27.731Z,92327.39
2019-01-09T16:21:30.406Z,92308.86
2019-01-09T16:36:35.824Z,92292.25
2019-01-09T16:51:38.386Z,92277.97
2019-01-09T17:06:41.762Z,92259.64
2019-01-09T17:21:44.889Z,92257.19
2019-01-09T17:36:48.519Z,92232.72
2019-01-09T17:51:51.886Z,92221.17
2019-01-09T18:06:57.241Z,92219.94
2019-01-09T18:22:00.811Z,92219.16
2019-01-09T18:37:24.112Z,92218.16
2019-01-09T18:52:40.474Z,92214.66
2019-01-09T19:07:43.157Z,92218.02
2019-01-09T19:22:46.226Z,92214.34
2019-01-09T19:37:49.029Z,92211.11
2019-01-09T19:52:53.887Z,92194.02
2019-01-09T20:07:57.877Z,92207.38
2019-01-09T20:23:00.575Z,92206.78
2019-01-09T20:38:04.080Z,92209.05
2019-01-09T20:53:06.777Z,92215.17
2019-01-09T21:08:10.247Z,92211.05
2019-01-09T21:23:13.288Z,92202.98
2019-01-09T21:38:17.373Z,92200.58
2019-01-09T21:53:21.162Z,92228.70
2019-01-09T22:08:24.662Z,92211.86
2019-01-09T22:23:28.338Z,92209.42
2019-01-09T22:38:31.342Z,92220.84
2019-01-09T22:53:33.910Z,92224.16
2019-01-09T23:08:37.496Z,92236.78
2019-01-09T23:23:40.097Z,92224.59
2019-01-09T23:38:43.373Z,92221.52
2019-01-09T23:53:46.322Z,92231.94
